Airfield :
LOGIN :

Register | Disclaimer

   EN    FR    IT 

 










Legend :    VFR   Marginal VFR   IFR   Intensive IFR   Very Intensive IFR
Visi :
Ceiling :
>= 8 km
>= 3000ft
5 to 8 km
1000 to 3000 ft
1500m to 5 km
500 to 1000 ft
800 to 1500m
200 to 500 ft
< 800m
< 200 ft
Symbols :   Thunderstorms  Fog  Heavy snow  Heavy precipitations  Wind > 20 kt
SIGMETs :     Misc.  Thunderstorms  Icing  Turbulence  Mountain Waves  Volcanic Ashes







- Airport Elevation : 3368 ft


LSGC - Les Eplatures

CURRENT METAR :
  • 211720Z AUTO 24009G19KT 190V280 9000 -RA BKN007 SCT018 07/06 Q1021

EXPIRED METARs :
  • 211650Z AUTO 26009KT 220V290 2900 -RA BR BKN007 SCT015 08/07 Q1020 REDZ
  • 211620Z AUTO 29012KT 260V320 9999 -RA FEW010 BKN039TCU 09/08 Q1019
  • 211550Z AUTO 23005KT 200V260 9999 SCT009 BKN018 BKN023 12/11 Q1018 RERA
  • 211520Z 27005KT 230V300 9999 SCT033 BKN050 15/09 Q1018 WS R24
  • 211450Z 24004KT 180V270 9999 SCT040 BKN095 15/09 Q1018 WS R24

TAF TAF LSGC
Valid from the 21 at 15:00 until the 22 at 00:00 UTC


211425Z 2115/2124 23012KT 9999 SCT040 BKN070
TEMPO 2115/2123 4500 SHRA SCT015TCU BKN025
No reported NOTAMs for that airfield.



MET'MAP, your aeronautical weather chart ! - Copyright ORBIFLY December 2007 - Disclaimer

ORBIFLY MET'MAP TEAM :

Programming & Development : Alexandra Zaïnal
Concept & Development : Baudouin d'Aumeries
Co-Development & Prog : Marc-Olivier Méhu
Technical & hardware support : Manuel Goepfert

Contact : metmap@orbifly.com




SOURCES & CREDITS :

   NOAA